Ames, Texas
Current Conditions -  °F | °C
As of 2:55 PM on Tuesday 25 Nov 2014 (Local Time) from K6R3 Reporting Station
Clear Clear  
Wind Chill: 18°   Ceiling: Unl
Heat Index: 18°   Visibility: 10mi
Dew Point: -1°   Wind: 8mph
Humidity: 28%   Direction: 340°NNW
Pressure: 30.23"   Gusts: NA
Location:  30.0821°N, 94.7401°W
Report Text: K6R3 252055Z AUTO 34007KT 10SM CLR 18/00 A3023 RMK AO2 T01831005
Loading
Personal Weather Stations






























Interactive Weather Map New forecast layout! Learn more

10-Day Weather Forecast

Advertisements
Track Severe Weather on mobile